Smith River, California
Current Conditions -  °F | °C
As of 8:31 AM on Friday 19 Dec 2014 (Local Time) from KCEC Reporting Station
Overcast Overcast  
Wind Chill: 53°   Ceiling: 2300
Heat Index: 53°   Visibility: 10mi
Dew Point: 50°   Wind: 13mph
Humidity: 89%   Direction: 160°SSE
Pressure: 30.04"   Gusts: NA
Location:  41.93°N, 124.15°W
Report Text: KCEC 191631Z AUTO 16011KT 10SM FEW012 BKN023 OVC070 12/10 A3004 RMK AO2 T01170100
Loading
Personal Weather Stations






























Interactive Weather Map New forecast layout! Learn more

10-Day Weather Forecast

Advertisements
Track Severe Weather on mobile